Time;durP1;ratioP1;P1;durP2;ratioP2;P2;SDS_P1;SDS_P2;PMS_P1;PMS_P2;Temp;Humidity;BMP_temperature;BMP_pressure;BME280_temperature;BME280_humidity;BME280_pressure;Samples;Min_cycle;Max_cycle;Signal;HPM_P1;HPM_P2
2021/01/30 00:01:52;;;;;;;35.53;20.42;;;;;;;;;;10214650;28;20077;-66
2021/01/30 00:06:50;;;;;;;21.50;13.57;;;;;;;;;;10211783;28;20068;-66
2021/01/30 00:11:48;;;;;;;24.25;15.90;;;;;;;;;;10208614;28;20466;-66
2021/01/30 00:16:46;;;;;;;15.25;10.35;;;;;;;;;;10212173;28;20061;-66
2021/01/30 00:21:49;;;;;;;12.05;8.82;;;;;;;;;;10211908;28;20292;-66
2021/01/30 00:26:49;;;;;;;13.60;7.90;;;;;;;;;;10214081;28;20069;-66
2021/01/30 00:31:47;;;;;;;38.20;20.35;;;;;;;;;;10212346;28;20061;-65
2021/01/30 00:36:45;;;;;;;19.80;11.68;;;;;;;;;;10214085;28;20073;-65
2021/01/30 00:41:42;;;;;;;40.38;22.05;;;;;;;;;;10212046;28;20080;-65
2021/01/30 00:46:40;;;;;;;28.33;16.95;;;;;;;;;;10220804;28;20070;-65
2021/01/30 00:51:38;;;;;;;11.80;7.68;;;;;;;;;;10221410;28;20100;-67
2021/01/30 00:56:36;;;;;;;13.10;8.57;;;;;;;;;;10218797;28;20076;-66
2021/01/30 01:01:35;;;;;;;59.10;32.20;;;;;;;;;;10221489;28;20069;-67
2021/01/30 01:06:35;;;;;;;27.75;16.92;;;;;;;;;;10215517;28;20081;-67
2021/01/30 01:11:34;;;;;;;11.52;8.18;;;;;;;;;;10215786;28;20065;-67
2021/01/30 01:16:32;;;;;;;12.77;9.02;;;;;;;;;;10219828;28;20069;-66
2021/01/30 01:21:30;;;;;;;24.33;16.48;;;;;;;;;;10218504;28;20085;-66
2021/01/30 01:26:27;;;;;;;13.00;7.88;;;;;;;;;;10219852;28;20080;-66
2021/01/30 01:31:26;;;;;;;12.02;7.97;;;;;;;;;;10219363;28;20084;-66
2021/01/30 01:36:23;;;;;;;10.07;7.03;;;;;;;;;;10218175;28;20106;-66
2021/01/30 01:41:20;;;;;;;19.05;12.88;;;;;;;;;;10219870;28;20070;-66
2021/01/30 01:46:23;;;;;;;10.38;7.60;;;;;;;;;;10214308;28;20060;-65
2021/01/30 01:51:25;;;;;;;21.63;14.88;;;;;;;;;;10215397;28;20066;-66
2021/01/30 01:56:24;;;;;;;18.55;10.57;;;;;;;;;;10215072;28;20073;-65
2021/01/30 02:01:22;;;;;;;11.27;8.30;;;;;;;;;;10214006;28;20080;-67
2021/01/30 02:06:20;;;;;;;14.45;9.95;;;;;;;;;;10218916;28;20069;-67
2021/01/30 02:11:18;;;;;;;30.15;18.30;;;;;;;;;;10215245;28;20514;-67
2021/01/30 02:16:33;;;;;;;19.33;12.48;;;;;;;;;;10217248;28;20061;-66
2021/01/30 02:21:52;;;;;;;24.95;15.90;;;;;;;;;;10214819;28;20076;-67
2021/01/30 02:27:04;;;;;;;26.33;11.15;;;;;;;;;;10215058;28;20062;-67
2021/01/30 02:32:26;;;;;;;12.05;7.32;;;;;;;;;;10216108;28;20459;-66
2021/01/30 02:37:26;;;;;;;21.88;15.07;;;;;;;;;;10198941;28;20085;-66
2021/01/30 02:42:25;;;;;;;12.85;8.77;;;;;;;;;;10215783;28;20493;-66
2021/01/30 02:47:24;;;;;;;10.88;7.28;;;;;;;;;;10217439;28;20180;-66
2021/01/30 02:52:24;;;;;;;6.03;5.15;;;;;;;;;;10214640;28;20079;-66
2021/01/30 02:57:24;;;;;;;31.33;22.80;;;;;;;;;;10216947;28;20080;-66
2021/01/30 03:02:22;;;;;;;22.10;17.13;;;;;;;;;;10215729;28;20087;-66
2021/01/30 03:07:36;;;;;;;25.80;20.55;;;;;;;;;;10213839;28;20070;-66
2021/01/30 03:12:38;;;;;;;27.55;21.58;;;;;;;;;;10212848;28;20076;-66
2021/01/30 03:17:36;;;;;;;25.13;19.13;;;;;;;;;;10213900;28;20071;-66
2021/01/30 03:22:37;;;;;;;22.58;17.30;;;;;;;;;;10213424;28;20084;-66
2021/01/30 03:27:35;;;;;;;24.70;17.95;;;;;;;;;;10212147;28;20080;-66
2021/01/30 03:32:33;;;;;;;19.45;16.55;;;;;;;;;;10211827;28;20093;-65
2021/01/30 03:37:31;;;;;;;17.48;12.57;;;;;;;;;;10215782;28;20073;-65
2021/01/30 03:42:28;;;;;;;10.80;9.52;;;;;;;;;;10213749;28;20075;-65
2021/01/30 03:47:26;;;;;;;18.77;12.27;;;;;;;;;;10214707;28;20077;-65
2021/01/30 03:52:24;;;;;;;24.85;14.80;;;;;;;;;;10214301;28;20072;-65
2021/01/30 03:57:21;;;;;;;25.77;17.23;;;;;;;;;;10213587;28;20122;-66
2021/01/30 04:02:18;;;;;;;58.65;31.67;;;;;;;;;;10215044;28;20069;-65
2021/01/30 04:07:17;;;;;;;41.35;25.13;;;;;;;;;;10210488;28;20506;-65
2021/01/30 04:12:14;;;;;;;37.90;23.55;;;;;;;;;;10210192;28;20502;-65
2021/01/30 04:17:11;;;;;;;46.25;27.45;;;;;;;;;;10213815;28;20081;-65
2021/01/30 04:22:09;;;;;;;54.97;33.78;;;;;;;;;;10212484;28;20108;-65
2021/01/30 04:27:07;;;;;;;60.08;38.50;;;;;;;;;;10212638;28;20078;-66
2021/01/30 04:32:05;;;;;;;43.38;26.35;;;;;;;;;;10213907;28;20515;-66
2021/01/30 04:37:03;;;;;;;35.47;24.42;;;;;;;;;;10212200;28;20167;-65
2021/01/30 04:42:03;;;;;;;31.33;20.42;;;;;;;;;;10209848;28;20115;-65
2021/01/30 04:47:10;;;;;;;36.08;24.55;;;;;;;;;;10208529;28;20061;-65
2021/01/30 04:52:10;;;;;;;33.75;21.08;;;;;;;;;;10205924;28;20460;-65
2021/01/30 04:57:14;;;;;;;26.63;19.70;;;;;;;;;;10213214;28;20581;-66
2021/01/30 05:02:16;;;;;;;22.85;16.52;;;;;;;;;;10207333;28;20096;-66
2021/01/30 05:07:20;;;;;;;20.15;15.77;;;;;;;;;;10209846;28;20081;-65
2021/01/30 05:12:19;;;;;;;20.15;14.60;;;;;;;;;;10205585;28;20085;-65
2021/01/30 05:17:21;;;;;;;18.02;14.35;;;;;;;;;;10210547;28;20069;-62
2021/01/30 05:22:21;;;;;;;25.05;16.88;;;;;;;;;;10200752;28;20073;-64
2021/01/30 05:27:38;;;;;;;15.52;12.70;;;;;;;;;;10373822;27;20706;-63
2021/01/30 05:32:39;;;;;;;33.83;21.33;;;;;;;;;;10370094;28;20059;-64
2021/01/30 05:37:39;;;;;;;35.88;21.58;;;;;;;;;;10352268;28;20071;-64
2021/01/30 05:42:42;;;;;;;34.03;22.45;;;;;;;;;;10367875;28;20084;-64
2021/01/30 05:47:40;;;;;;;28.75;18.60;;;;;;;;;;10357765;28;20074;-65
2021/01/30 05:52:38;;;;;;;18.17;14.57;;;;;;;;;;10369465;28;20076;-65
2021/01/30 05:57:37;;;;;;;92.80;56.15;;;;;;;;;;10367109;28;20075;-64
2021/01/30 06:02:35;;;;;;;91.32;62.05;;;;;;;;;;10368601;28;20072;-65
2021/01/30 06:07:35;;;;;;;89.43;53.60;;;;;;;;;;10370017;28;20078;-65
2021/01/30 06:12:33;;;;;;;78.50;53.70;;;;;;;;;;10366121;28;20083;-66
2021/01/30 06:17:33;;;;;;;74.30;49.92;;;;;;;;;;10365860;28;20074;-65
2021/01/30 06:22:31;;;;;;;143.10;95.00;;;;;;;;;;10364667;28;20064;-65
2021/01/30 06:27:30;;;;;;;89.18;48.85;;;;;;;;;;10368549;28;20576;-65
2021/01/30 06:32:32;;;;;;;78.45;50.88;;;;;;;;;;10367031;28;20085;-65
2021/01/30 06:37:35;;;;;;;62.22;39.58;;;;;;;;;;10348841;28;20036;-65
2021/01/30 06:42:35;;;;;;;48.75;34.33;;;;;;;;;;10339620;28;20028;-66
2021/01/30 06:47:44;;;;;;;72.15;45.50;;;;;;;;;;10340684;28;20428;-65
2021/01/30 06:52:43;;;;;;;97.47;63.08;;;;;;;;;;10338176;28;20087;-65
2021/01/30 06:57:46;;;;;;;104.13;63.70;;;;;;;;;;10340425;28;20466;-65
2021/01/30 07:02:44;;;;;;;95.82;58.38;;;;;;;;;;10338529;28;20536;-65
2021/01/30 07:07:49;;;;;;;65.88;46.55;;;;;;;;;;10339760;28;20075;-65
2021/01/30 07:12:51;;;;;;;36.72;28.63;;;;;;;;;;10338519;28;20072;-65
2021/01/30 07:17:53;;;;;;;63.53;44.08;;;;;;;;;;10338788;28;20493;-65
2021/01/30 07:22:53;;;;;;;57.75;42.13;;;;;;;;;;10338148;28;20067;-65
2021/01/30 07:27:54;;;;;;;55.75;40.53;;;;;;;;;;10338136;28;20068;-65
2021/01/30 07:32:53;;;;;;;89.45;59.20;;;;;;;;;;10337977;28;20060;-65
2021/01/30 07:37:54;;;;;;;57.08;41.15;;;;;;;;;;10337923;28;20064;-65
2021/01/30 07:54:42;;;;;;;84.75;49.45;;;;;;;;;;10337217;28;20067;-65
2021/01/30 07:59:42;;;;;;;81.25;57.03;;;;;;;;;;10337119;28;20075;-65
2021/01/30 08:04:51;;;;;;;77.93;53.15;;;;;;;;;;10337783;28;20068;-66
2021/01/30 08:09:55;;;;;;;82.50;52.72;;;;;;;;;;10334687;28;20063;-65
2021/01/30 08:14:57;;;;;;;77.10;48.15;;;;;;;;;;10337632;28;20108;-66
2021/01/30 08:19:56;;;;;;;116.93;65.38;;;;;;;;;;10336117;28;20068;-64
2021/01/30 08:25:00;;;;;;;52.85;40.20;;;;;;;;;;10336325;28;20083;-64
2021/01/30 08:30:00;;;;;;;34.88;31.05;;;;;;;;;;10336543;28;20068;-65
2021/01/30 08:35:17;;;;;;;43.55;34.17;;;;;;;;;;10335845;28;20467;-66
2021/01/30 08:40:16;;;;;;;49.72;39.17;;;;;;;;;;10333356;28;20071;-66
2021/01/30 08:45:13;;;;;;;64.18;54.75;;;;;;;;;;10336711;28;20082;-66
2021/01/30 08:50:12;;;;;;;62.20;50.78;;;;;;;;;;10334230;28;20059;-65
2021/01/30 08:55:34;;;;;;;56.65;41.67;;;;;;;;;;10331985;28;20070;-65
2021/01/30 09:00:52;;;;;;;68.40;47.03;;;;;;;;;;10333685;28;20480;-63
2021/01/30 09:05:49;;;;;;;75.68;49.63;;;;;;;;;;10335685;28;20072;-64
2021/01/30 09:10:47;;;;;;;43.30;30.95;;;;;;;;;;10334053;28;20505;-64
2021/01/30 09:15:55;;;;;;;40.13;31.88;;;;;;;;;;10334841;28;20106;-65
2021/01/30 09:20:56;;;;;;;56.65;38.92;;;;;;;;;;10331095;28;20079;-65
2021/01/30 09:26:00;;;;;;;44.67;36.05;;;;;;;;;;10330691;28;20083;-65
2021/01/30 09:31:00;;;;;;;42.97;35.83;;;;;;;;;;10330333;28;20472;-64
2021/01/30 09:36:08;;;;;;;49.42;37.60;;;;;;;;;;10331207;28;20059;-64
2021/01/30 09:41:13;;;;;;;46.40;32.90;;;;;;;;;;10332721;28;20075;-64
2021/01/30 09:46:13;;;;;;;48.55;36.25;;;;;;;;;;10333429;28;20074;-65
2021/01/30 09:51:12;;;;;;;91.95;55.40;;;;;;;;;;10334057;28;20079;-66
2021/01/30 09:56:11;;;;;;;51.72;34.30;;;;;;;;;;10334451;28;20064;-65
2021/01/30 10:01:10;;;;;;;52.67;37.60;;;;;;;;;;10334836;28;20072;-65
2021/01/30 10:06:09;;;;;;;46.35;35.70;;;;;;;;;;10334933;28;20103;-64
2021/01/30 10:11:07;;;;;;;53.25;37.47;;;;;;;;;;10334198;28;20429;-65
2021/01/30 10:16:11;;;;;;;73.32;49.58;;;;;;;;;;10342738;28;20060;-64
2021/01/30 10:21:10;;;;;;;63.20;43.83;;;;;;;;;;10341290;28;20182;-65
2021/01/30 10:26:12;;;;;;;224.88;149.00;;;;;;;;;;10341369;28;20091;-65
2021/01/30 10:31:10;;;;;;;88.50;57.67;;;;;;;;;;10340955;28;20253;-64
2021/01/30 10:36:08;;;;;;;118.90;71.03;;;;;;;;;;10341993;28;20511;-65
2021/01/30 10:41:07;;;;;;;119.75;86.28;;;;;;;;;;10340070;28;20488;-65
2021/01/30 10:46:05;;;;;;;107.03;68.75;;;;;;;;;;10337446;28;20071;-65
2021/01/30 10:51:05;;;;;;;101.63;67.15;;;;;;;;;;10337195;28;20522;-65
2021/01/30 10:56:12;;;;;;;91.03;54.55;;;;;;;;;;10341308;28;20501;-65
2021/01/30 11:01:10;;;;;;;122.22;75.63;;;;;;;;;;10337701;28;20076;-65
2021/01/30 11:06:16;;;;;;;166.82;94.80;;;;;;;;;;10336793;28;20082;-65
2021/01/30 11:11:21;;;;;;;227.75;119.22;;;;;;;;;;10337823;28;20072;-65
2021/01/30 11:16:23;;;;;;;190.80;104.90;;;;;;;;;;10339757;28;20064;-65
2021/01/30 11:21:30;;;;;;;150.52;93.22;;;;;;;;;;10339607;28;20098;-65
2021/01/30 11:26:38;;;;;;;153.20;92.60;;;;;;;;;;10334555;28;20496;-65
2021/01/30 11:31:38;;;;;;;93.00;63.53;;;;;;;;;;10335758;28;20067;-64
2021/01/30 11:36:36;;;;;;;197.73;108.07;;;;;;;;;;10339007;28;20064;-64
2021/01/30 11:41:33;;;;;;;188.65;105.43;;;;;;;;;;10336681;28;20059;-65
2021/01/30 11:46:31;;;;;;;255.77;126.90;;;;;;;;;;10333924;28;20467;-63
2021/01/30 11:51:29;;;;;;;204.05;103.55;;;;;;;;;;10336789;28;20815;-63
2021/01/30 11:56:28;;;;;;;373.30;170.38;;;;;;;;;;10336201;28;20075;-64
2021/01/30 12:01:25;;;;;;;407.55;178.15;;;;;;;;;;10337601;28;20068;-63
2021/01/30 12:06:23;;;;;;;191.48;99.72;;;;;;;;;;10337703;28;20086;-63
2021/01/30 12:11:20;;;;;;;143.50;79.97;;;;;;;;;;10337028;28;20072;-66
2021/01/30 12:16:20;;;;;;;98.80;58.42;;;;;;;;;;10338463;28;20074;-64
2021/01/30 12:21:21;;;;;;;248.13;122.75;;;;;;;;;;10334100;28;20505;-64
2021/01/30 12:26:20;;;;;;;64.35;38.50;;;;;;;;;;10332908;28;20101;-64
2021/01/30 12:31:17;;;;;;;104.80;56.78;;;;;;;;;;10333731;28;20059;-65
2021/01/30 12:36:16;;;;;;;288.58;139.75;;;;;;;;;;10331653;28;20535;-64
2021/01/30 12:41:13;;;;;;;151.27;93.07;;;;;;;;;;10337137;28;20509;-65
2021/01/30 12:46:11;;;;;;;178.93;105.90;;;;;;;;;;10335894;28;20071;-64
2021/01/30 12:51:08;;;;;;;152.93;85.85;;;;;;;;;;10335906;28;20072;-64
2021/01/30 12:56:06;;;;;;;163.65;92.82;;;;;;;;;;10336616;28;20063;-66
2021/01/30 13:01:04;;;;;;;95.50;57.13;;;;;;;;;;10334825;28;20083;-64
2021/01/30 13:06:01;;;;;;;99.13;56.85;;;;;;;;;;10336715;28;20068;-65
2021/01/30 13:10:59;;;;;;;75.38;46.90;;;;;;;;;;10334500;28;20551;-64
2021/01/30 13:15:57;;;;;;;102.57;61.10;;;;;;;;;;10335847;28;20075;-65
2021/01/30 13:20:55;;;;;;;51.70;34.28;;;;;;;;;;10334851;28;20074;-65
2021/01/30 13:25:52;;;;;;;54.40;37.47;;;;;;;;;;10333944;28;20080;-65
2021/01/30 13:30:49;;;;;;;94.32;61.10;;;;;;;;;;10335655;28;20465;-65
2021/01/30 13:35:50;;;;;;;48.55;36.15;;;;;;;;;;10334308;28;20072;-65
2021/01/30 13:40:48;;;;;;;64.93;47.63;;;;;;;;;;10336183;28;20094;-66
2021/01/30 13:45:45;;;;;;;58.58;37.45;;;;;;;;;;10333398;28;20067;-65
2021/01/30 13:50:43;;;;;;;75.25;46.67;;;;;;;;;;10343953;28;20071;-65
2021/01/30 13:55:41;;;;;;;198.75;117.95;;;;;;;;;;10342429;28;20056;-65
2021/01/30 14:00:38;;;;;;;168.15;114.10;;;;;;;;;;10340827;28;20079;-66
2021/01/30 14:05:36;;;;;;;102.28;66.90;;;;;;;;;;10342643;28;20103;-65
2021/01/30 14:10:34;;;;;;;99.32;64.82;;;;;;;;;;10341648;28;20441;-65
2021/01/30 14:15:32;;;;;;;117.10;82.35;;;;;;;;;;10342959;28;20060;-65
2021/01/30 14:20:30;;;;;;;182.23;131.80;;;;;;;;;;10338725;28;20064;-64
2021/01/30 14:25:27;;;;;;;65.30;49.58;;;;;;;;;;10341650;28;20107;-65
2021/01/30 14:30:25;;;;;;;110.32;74.53;;;;;;;;;;10340739;28;20078;-65
2021/01/30 14:35:25;;;;;;;117.43;82.10;;;;;;;;;;10341314;28;20074;-65
2021/01/30 14:40:24;;;;;;;58.90;43.28;;;;;;;;;;10340836;28;20068;-65
2021/01/30 14:45:22;;;;;;;159.70;111.63;;;;;;;;;;10340437;28;20557;-65
2021/01/30 14:50:20;;;;;;;62.90;44.67;;;;;;;;;;10341425;28;20072;-65
2021/01/30 14:55:35;;;;;;;142.30;90.28;;;;;;;;;;10336696;28;20071;-65
2021/01/30 15:00:36;;;;;;;65.55;48.33;;;;;;;;;;10336804;28;20068;-64
2021/01/30 15:05:34;;;;;;;32.33;26.98;;;;;;;;;;10336638;28;20099;-65
2021/01/30 15:10:32;;;;;;;55.25;38.28;;;;;;;;;;10340856;28;20076;-65
2021/01/30 15:15:31;;;;;;;66.13;36.67;;;;;;;;;;10339108;28;20063;-65
2021/01/30 15:20:29;;;;;;;171.43;93.95;;;;;;;;;;10340045;28;20072;-67
2021/01/30 15:25:26;;;;;;;185.75;87.63;;;;;;;;;;10338546;28;20084;-65
2021/01/30 15:30:25;;;;;;;163.30;83.00;;;;;;;;;;10338557;28;20448;-64
2021/01/30 15:35:25;;;;;;;174.05;85.47;;;;;;;;;;10337448;28;20075;-65
2021/01/30 15:40:22;;;;;;;161.75;77.30;;;;;;;;;;10337780;28;20151;-66
2021/01/30 15:45:20;;;;;;;186.60;89.15;;;;;;;;;;10335114;28;20064;-65
2021/01/30 15:50:17;;;;;;;152.52;77.15;;;;;;;;;;10334632;28;20468;-66
2021/01/30 15:55:18;;;;;;;111.35;71.85;;;;;;;;;;10338414;28;20112;-65
2021/01/30 16:00:16;;;;;;;30.35;25.48;;;;;;;;;;10337490;28;20465;-65
2021/01/30 16:05:14;;;;;;;31.90;22.63;;;;;;;;;;10337512;28;20106;-65
2021/01/30 16:10:13;;;;;;;25.42;22.02;;;;;;;;;;10336927;28;20067;-66
2021/01/30 16:15:12;;;;;;;29.95;23.98;;;;;;;;;;10336608;28;20439;-65
2021/01/30 16:20:10;;;;;;;32.22;24.67;;;;;;;;;;10337686;28;20074;-65
2021/01/30 16:25:11;;;;;;;52.47;32.33;;;;;;;;;;10335098;28;20091;-66
2021/01/30 16:30:10;;;;;;;48.08;29.25;;;;;;;;;;10333685;28;20091;-66
2021/01/30 16:35:09;;;;;;;40.58;27.85;;;;;;;;;;10333209;28;20094;-65
2021/01/30 16:40:07;;;;;;;30.25;21.98;;;;;;;;;;10332941;28;20129;-65
2021/01/30 16:45:06;;;;;;;22.92;17.58;;;;;;;;;;10336955;28;20068;-64
2021/01/30 16:50:03;;;;;;;92.97;46.00;;;;;;;;;;10334882;28;20079;-65
2021/01/30 16:55:02;;;;;;;62.33;35.10;;;;;;;;;;10335989;28;20465;-66
2021/01/30 16:59:59;;;;;;;63.97;38.15;;;;;;;;;;10335730;28;20516;-65
2021/01/30 17:04:57;;;;;;;41.97;27.65;;;;;;;;;;10334931;28;20446;-65
2021/01/30 17:09:54;;;;;;;36.55;25.85;;;;;;;;;;10336296;28;20528;-64
2021/01/30 17:14:52;;;;;;;25.13;18.75;;;;;;;;;;10334302;28;20067;-66
2021/01/30 17:19:52;;;;;;;28.08;19.55;;;;;;;;;;10331315;28;20504;-63
2021/01/30 17:24:50;;;;;;;49.97;30.75;;;;;;;;;;10335180;28;20075;-66
2021/01/30 17:29:47;;;;;;;25.08;19.30;;;;;;;;;;10334194;28;20075;-65
2021/01/30 17:34:45;;;;;;;30.60;19.27;;;;;;;;;;10334854;28;20071;-65
2021/01/30 17:39:44;;;;;;;46.03;25.85;;;;;;;;;;10334492;28;20464;-64
2021/01/30 17:44:42;;;;;;;26.98;20.83;;;;;;;;;;10334106;28;20060;-64
2021/01/30 17:49:39;;;;;;;20.63;15.82;;;;;;;;;;10335313;28;20059;-64
2021/01/30 17:54:37;;;;;;;20.08;14.57;;;;;;;;;;10333559;28;20060;-63
2021/01/30 17:59:34;;;;;;;17.33;14.13;;;;;;;;;;10317730;28;20071;-65
2021/01/30 18:04:32;;;;;;;19.80;14.52;;;;;;;;;;10324380;28;20056;-71
2021/01/30 18:09:29;;;;;;;17.60;14.20;;;;;;;;;;10313996;28;20102;-72
2021/01/30 18:14:28;;;;;;;21.38;16.65;;;;;;;;;;10312056;28;20084;-72
2021/01/30 18:19:25;;;;;;;18.60;15.15;;;;;;;;;;10324206;28;20064;-73
2021/01/30 18:24:22;;;;;;;20.55;15.10;;;;;;;;;;10329727;28;20091;-70
2021/01/30 18:29:20;;;;;;;24.70;16.48;;;;;;;;;;10323757;28;20519;-71
2021/01/30 18:34:18;;;;;;;21.67;14.40;;;;;;;;;;10316694;28;20064;-71
2021/01/30 18:39:15;;;;;;;30.63;20.83;;;;;;;;;;10341654;28;20055;-72
2021/01/30 18:44:13;;;;;;;18.50;13.23;;;;;;;;;;10340758;28;20060;-71
2021/01/30 18:49:10;;;;;;;19.17;14.82;;;;;;;;;;10340803;28;20109;-72
2021/01/30 18:54:08;;;;;;;18.23;13.77;;;;;;;;;;10339792;28;20446;-72
2021/01/30 18:59:06;;;;;;;21.30;15.65;;;;;;;;;;10341141;28;20092;-72
2021/01/30 19:04:03;;;;;;;26.00;18.98;;;;;;;;;;10338882;28;20531;-73
2021/01/30 19:09:00;;;;;;;21.27;15.65;;;;;;;;;;10340557;28;20464;-72
2021/01/30 19:14:00;;;;;;;21.45;15.68;;;;;;;;;;10338716;28;20083;-71
2021/01/30 19:18:58;;;;;;;13.52;11.13;;;;;;;;;;10338822;28;20068;-72
2021/01/30 19:23:56;;;;;;;22.60;17.85;;;;;;;;;;10338395;28;20072;-71
2021/01/30 19:28:54;;;;;;;22.85;16.85;;;;;;;;;;10338391;28;20088;-71
2021/01/30 19:33:52;;;;;;;19.25;14.23;;;;;;;;;;10339255;28;20071;-71
2021/01/30 19:38:49;;;;;;;15.57;12.35;;;;;;;;;;10337608;28;20067;-71
2021/01/30 19:43:46;;;;;;;23.25;13.68;;;;;;;;;;10334493;28;20063;-71
2021/01/30 19:48:45;;;;;;;24.15;18.85;;;;;;;;;;10338799;28;20083;-72
2021/01/30 19:53:43;;;;;;;28.17;19.63;;;;;;;;;;10337586;28;20074;-71
2021/01/30 19:58:41;;;;;;;22.52;15.13;;;;;;;;;;10338170;28;20485;-71
2021/01/30 20:03:38;;;;;;;17.63;13.60;;;;;;;;;;10337330;28;20068;-71
2021/01/30 20:08:35;;;;;;;26.63;19.23;;;;;;;;;;10336358;28;20072;-71
2021/01/30 20:13:34;;;;;;;29.17;22.77;;;;;;;;;;10338214;28;20060;-71
2021/01/30 20:18:31;;;;;;;18.60;14.13;;;;;;;;;;10333470;28;20071;-71
2021/01/30 20:23:29;;;;;;;24.27;17.25;;;;;;;;;;10337277;28;20064;-71
2021/01/30 20:28:26;;;;;;;26.58;17.95;;;;;;;;;;10335818;28;20080;-72
2021/01/30 20:33:24;;;;;;;37.33;24.95;;;;;;;;;;10336424;28;20071;-72
2021/01/30 20:38:21;;;;;;;32.60;21.88;;;;;;;;;;10336296;28;20071;-73
2021/01/30 20:43:19;;;;;;;15.77;12.63;;;;;;;;;;10335102;28;20063;-70
2021/01/30 20:48:23;;;;;;;12.50;10.07;;;;;;;;;;10335768;28;20078;-72
2021/01/30 20:53:21;;;;;;;13.15;10.07;;;;;;;;;;10335488;28;20075;-72
2021/01/30 20:58:19;;;;;;;17.40;12.70;;;;;;;;;;10337073;28;20440;-72
2021/01/30 21:03:18;;;;;;;13.98;11.07;;;;;;;;;;10332649;28;20079;-72
2021/01/30 21:08:17;;;;;;;14.40;11.40;;;;;;;;;;10332333;28;20075;-71
2021/01/30 21:13:14;;;;;;;10.35;7.53;;;;;;;;;;10335483;28;20064;-72
2021/01/30 21:18:11;;;;;;;10.65;8.20;;;;;;;;;;10335104;28;20064;-72
2021/01/30 21:23:09;;;;;;;19.02;16.25;;;;;;;;;;10335095;28;20505;-73
2021/01/30 21:28:07;;;;;;;20.35;17.33;;;;;;;;;;10334669;28;20138;-72
2021/01/30 21:33:04;;;;;;;12.52;8.93;;;;;;;;;;10333295;28;20079;-71
2021/01/30 21:38:02;;;;;;;95.47;48.03;;;;;;;;;;10336090;28;20481;-70
2021/01/30 21:43:00;;;;;;;128.20;66.85;;;;;;;;;;10331228;28;20064;-71
2021/01/30 21:47:58;;;;;;;66.07;42.75;;;;;;;;;;10332925;28;20087;-71
2021/01/30 21:52:55;;;;;;;92.82;55.90;;;;;;;;;;10333301;28;20078;-71
2021/01/30 21:57:57;;;;;;;106.20;64.15;;;;;;;;;;10333012;28;20072;-71
2021/01/30 22:02:54;;;;;;;61.58;34.88;;;;;;;;;;10333461;28;20083;-72
2021/01/30 22:07:52;;;;;;;53.67;31.08;;;;;;;;;;10337755;28;20075;-71
2021/01/30 22:12:50;;;;;;;75.18;43.47;;;;;;;;;;10342768;28;20087;-70
2021/01/30 22:17:47;;;;;;;39.72;23.17;;;;;;;;;;10339999;28;20064;-72
2021/01/30 22:22:44;;;;;;;106.20;51.53;;;;;;;;;;10338240;28;20072;-72
2021/01/30 22:27:43;;;;;;;107.57;56.03;;;;;;;;;;10342454;28;20087;-71
2021/01/30 22:32:56;;;;;;;80.00;40.58;;;;;;;;;;10339329;28;20487;-72
2021/01/30 22:37:54;;;;;;;68.35;35.65;;;;;;;;;;10341886;28;20459;-71
2021/01/30 22:42:53;;;;;;;29.77;20.17;;;;;;;;;;10340410;28;20083;-72
2021/01/30 22:47:50;;;;;;;23.35;15.93;;;;;;;;;;10342032;28;20485;-72
2021/01/30 22:52:48;;;;;;;23.08;13.45;;;;;;;;;;10335730;28;20055;-72
2021/01/30 22:57:46;;;;;;;18.17;13.20;;;;;;;;;;10341415;28;20063;-71
2021/01/30 23:02:44;;;;;;;82.00;36.38;;;;;;;;;;10338330;28;20497;-72
2021/01/30 23:07:41;;;;;;;26.67;16.45;;;;;;;;;;10339125;28;20087;-72
2021/01/30 23:12:38;;;;;;;27.17;17.85;;;;;;;;;;10340476;28;20070;-71
2021/01/30 23:17:36;;;;;;;32.00;18.23;;;;;;;;;;10338683;28;20076;-71
2021/01/30 23:22:35;;;;;;;29.00;16.65;;;;;;;;;;10339961;28;20068;-72
2021/01/30 23:27:32;;;;;;;31.10;18.40;;;;;;;;;;10335881;28;20075;-71
2021/01/30 23:32:29;;;;;;;18.42;12.20;;;;;;;;;;10340604;28;20079;-71
2021/01/30 23:37:26;;;;;;;20.02;13.57;;;;;;;;;;10338134;28;20075;-72
2021/01/30 23:42:25;;;;;;;23.73;15.55;;;;;;;;;;10338650;28;20067;-74
2021/01/30 23:47:22;;;;;;;30.77;17.92;;;;;;;;;;10338915;28;20181;-71
2021/01/30 23:52:19;;;;;;;39.88;23.92;;;;;;;;;;10337426;28;20072;-73
2021/01/30 23:57:17;;;;;;;149.80;68.15;;;;;;;;;;10334215;28;20079;-72
